sensor_id;sensor_type;location;lat;lon;timestamp;temperature;humidity
17671;DHT22;8954;48.694;8.940;2023-09-12T06:56:44;20.30;99.90
17671;DHT22;8954;48.694;8.940;2023-09-12T06:59:10;20.30;99.90
17671;DHT22;8954;48.694;8.940;2023-09-12T07:01:36;20.70;99.90
17671;DHT22;8954;48.694;8.940;2023-09-12T07:04:02;21.00;99.90
17671;DHT22;8954;48.694;8.940;2023-09-12T07:06:28;21.40;99.90
17671;DHT22;8954;48.694;8.940;2023-09-12T07:08:54;21.70;99.90
17671;DHT22;8954;48.694;8.940;2023-09-12T07:11:19;21.90;99.90
17671;DHT22;8954;48.694;8.940;2023-09-12T07:13:45;22.20;99.90
17671;DHT22;8954;48.694;8.940;2023-09-12T07:16:11;22.50;99.90
17671;DHT22;8954;48.694;8.940;2023-09-12T07:18:37;22.80;99.90
17671;DHT22;8954;48.694;8.940;2023-09-12T07:21:04;23.30;99.90
17671;DHT22;8954;48.694;8.940;2023-09-12T07:23:30;23.70;99.90
17671;DHT22;8954;48.694;8.940;2023-09-12T07:25:56;24.20;99.90
17671;DHT22;8954;48.694;8.940;2023-09-12T07:28:25;24.50;99.90
17671;DHT22;8954;48.694;8.940;2023-09-12T07:30:51;24.70;99.90
17671;DHT22;8954;48.694;8.940;2023-09-12T07:33:17;24.70;99.90
17671;DHT22;8954;48.694;8.940;2023-09-12T07:35:42;24.60;99.90
17671;DHT22;8954;48.694;8.940;2023-09-12T07:38:08;24.80;99.90
17671;DHT22;8954;48.694;8.940;2023-09-12T07:40:33;25.20;99.90
17671;DHT22;8954;48.694;8.940;2023-09-12T07:42:59;25.90;99.90
17671;DHT22;8954;48.694;8.940;2023-09-12T07:45:25;26.30;99.90
17671;DHT22;8954;48.694;8.940;2023-09-12T07:47:50;26.30;99.90
17671;DHT22;8954;48.694;8.940;2023-09-12T07:50:16;25.90;99.90
17671;DHT22;8954;48.694;8.940;2023-09-12T07:52:42;25.70;99.90
17671;DHT22;8954;48.694;8.940;2023-09-12T07:55:07;25.70;99.90
17671;DHT22;8954;48.694;8.940;2023-09-12T07:57:34;25.50;99.90
17671;DHT22;8954;48.694;8.940;2023-09-12T08:00:00;25.30;99.90
17671;DHT22;8954;48.694;8.940;2023-09-12T08:02:26;25.30;99.90
17671;DHT22;8954;48.694;8.940;2023-09-12T08:04:51;25.00;99.90
17671;DHT22;8954;48.694;8.940;2023-09-12T08:07:17;24.70;99.90
17671;DHT22;8954;48.694;8.940;2023-09-12T08:09:54;24.80;99.90
17671;DHT22;8954;48.694;8.940;2023-09-12T08:12:21;24.90;99.90
17671;DHT22;8954;48.694;8.940;2023-09-12T08:14:47;25.10;99.90
17671;DHT22;8954;48.694;8.940;2023-09-12T08:17:14;25.80;99.90
17671;DHT22;8954;48.694;8.940;2023-09-12T08:26:59;31.30;99.90
17671;DHT22;8954;48.694;8.940;2023-09-12T08:29:25;32.00;99.90
17671;DHT22;8954;48.694;8.940;2023-09-12T08:46:31;37.40;86.90
17671;DHT22;8954;48.694;8.940;2023-09-12T08:48:57;38.80;82.00
17671;DHT22;8954;48.694;8.940;2023-09-12T08:51:23;39.90;78.80
17671;DHT22;8954;48.694;8.940;2023-09-12T08:53:50;39.10;79.80
17671;DHT22;8954;48.694;8.940;2023-09-12T08:56:16;39.30;77.80
17671;DHT22;8954;48.694;8.940;2023-09-12T08:58:43;39.20;76.20
17671;DHT22;8954;48.694;8.940;2023-09-12T09:03:37;41.00;67.50
17671;DHT22;8954;48.694;8.940;2023-09-12T09:06:04;42.20;69.70
17671;DHT22;8954;48.694;8.940;2023-09-12T09:08:31;41.80;69.80
17671;DHT22;8954;48.694;8.940;2023-09-12T09:10:58;41.70;69.10
17671;DHT22;8954;48.694;8.940;2023-09-12T09:36:04;44.10;72.40
17671;DHT22;8954;48.694;8.940;2023-09-12T09:38:30;43.10;69.00
17671;DHT22;8954;48.694;8.940;2023-09-12T09:40:56;42.20;71.50
17671;DHT22;8954;48.694;8.940;2023-09-12T09:43:23;43.70;67.30
17671;DHT22;8954;48.694;8.940;2023-09-12T09:45:50;44.00;66.40
17671;DHT22;8954;48.694;8.940;2023-09-12T09:48:21;44.50;66.60
17671;DHT22;8954;48.694;8.940;2023-09-12T09:50:47;42.10;68.80
17671;DHT22;8954;48.694;8.940;2023-09-12T09:53:13;42.30;67.50
17671;DHT22;8954;48.694;8.940;2023-09-12T09:55:38;44.40;63.10
17671;DHT22;8954;48.694;8.940;2023-09-12T09:58:07;43.90;63.80
17671;DHT22;8954;48.694;8.940;2023-09-12T10:00:39;44.10;62.00
17671;DHT22;8954;48.694;8.940;2023-09-12T10:03:05;45.30;59.20
17671;DHT22;8954;48.694;8.940;2023-09-12T10:05:33;45.80;58.50
17671;DHT22;8954;48.694;8.940;2023-09-12T10:08:02;45.50;58.90
17671;DHT22;8954;48.694;8.940;2023-09-12T10:10:32;45.20;58.60
17671;DHT22;8954;48.694;8.940;2023-09-12T10:13:03;44.50;58.20
17671;DHT22;8954;48.694;8.940;2023-09-12T10:15:30;43.40;60.70
17671;DHT22;8954;48.694;8.940;2023-09-12T10:17:58;43.40;60.50
17671;DHT22;8954;48.694;8.940;2023-09-12T10:20:29;43.60;60.00
17671;DHT22;8954;48.694;8.940;2023-09-12T10:23:05;43.30;61.00
17671;DHT22;8954;48.694;8.940;2023-09-12T10:25:35;44.70;59.00
17671;DHT22;8954;48.694;8.940;2023-09-12T10:28:04;45.70;57.40
17671;DHT22;8954;48.694;8.940;2023-09-12T10:30:30;47.10;56.70
17671;DHT22;8954;48.694;8.940;2023-09-12T10:32:57;47.00;57.40
17671;DHT22;8954;48.694;8.940;2023-09-12T10:35:23;46.30;58.20
17671;DHT22;8954;48.694;8.940;2023-09-12T10:37:49;45.60;57.90
17671;DHT22;8954;48.694;8.940;2023-09-12T10:40:17;44.90;59.40
17671;DHT22;8954;48.694;8.940;2023-09-12T10:42:43;45.00;59.60
17671;DHT22;8954;48.694;8.940;2023-09-12T10:45:10;45.40;59.40
17671;DHT22;8954;48.694;8.940;2023-09-12T10:47:38;44.20;58.90
17671;DHT22;8954;48.694;8.940;2023-09-12T10:50:05;44.10;59.70
17671;DHT22;8954;48.694;8.940;2023-09-12T10:52:31;44.40;58.40
17671;DHT22;8954;48.694;8.940;2023-09-12T10:54:57;45.60;57.40
17671;DHT22;8954;48.694;8.940;2023-09-12T10:57:23;46.40;56.60
17671;DHT22;8954;48.694;8.940;2023-09-12T11:02:33;46.00;58.10
17671;DHT22;8954;48.694;8.940;2023-09-12T11:05:03;46.80;56.20
17671;DHT22;8954;48.694;8.940;2023-09-12T11:12:46;46.10;53.10
17671;DHT22;8954;48.694;8.940;2023-09-12T11:15:13;46.80;52.80
17671;DHT22;8954;48.694;8.940;2023-09-12T11:17:44;46.30;53.60
17671;DHT22;8954;48.694;8.940;2023-09-12T11:20:11;47.40;52.20
17671;DHT22;8954;48.694;8.940;2023-09-12T11:22:40;48.10;52.10
17671;DHT22;8954;48.694;8.940;2023-09-12T11:25:25;48.50;52.50
17671;DHT22;8954;48.694;8.940;2023-09-12T11:30:22;48.50;52.90
17671;DHT22;8954;48.694;8.940;2023-09-12T11:32:50;47.30;53.50
17671;DHT22;8954;48.694;8.940;2023-09-12T11:35:17;46.00;55.10
17671;DHT22;8954;48.694;8.940;2023-09-12T11:38:00;45.50;54.90
17671;DHT22;8954;48.694;8.940;2023-09-12T11:40:42;46.10;55.20
17671;DHT22;8954;48.694;8.940;2023-09-12T11:43:23;47.90;51.80
17671;DHT22;8954;48.694;8.940;2023-09-12T11:45:49;47.10;53.10
17671;DHT22;8954;48.694;8.940;2023-09-12T11:48:15;47.80;52.30
17671;DHT22;8954;48.694;8.940;2023-09-12T11:50:49;48.60;52.40
17671;DHT22;8954;48.694;8.940;2023-09-12T11:53:20;49.70;53.00
17671;DHT22;8954;48.694;8.940;2023-09-12T11:55:48;49.30;53.20
17671;DHT22;8954;48.694;8.940;2023-09-12T11:58:15;50.70;51.80
17671;DHT22;8954;48.694;8.940;2023-09-12T12:00:55;48.80;53.70
17671;DHT22;8954;48.694;8.940;2023-09-12T12:03:25;49.00;54.00
17671;DHT22;8954;48.694;8.940;2023-09-12T12:05:52;48.40;54.50
17671;DHT22;8954;48.694;8.940;2023-09-12T12:08:18;47.60;54.20
17671;DHT22;8954;48.694;8.940;2023-09-12T12:10:49;46.80;54.30
17671;DHT22;8954;48.694;8.940;2023-09-12T12:13:19;47.20;53.80
17671;DHT22;8954;48.694;8.940;2023-09-12T12:15:45;46.70;54.50
17671;DHT22;8954;48.694;8.940;2023-09-12T12:18:10;46.60;53.60
17671;DHT22;8954;48.694;8.940;2023-09-12T12:20:37;46.90;53.50
17671;DHT22;8954;48.694;8.940;2023-09-12T12:23:06;46.20;53.80
17671;DHT22;8954;48.694;8.940;2023-09-12T12:25:33;45.70;54.40
17671;DHT22;8954;48.694;8.940;2023-09-12T12:28:00;46.30;53.50
17671;DHT22;8954;48.694;8.940;2023-09-12T12:30:29;46.70;53.20
17671;DHT22;8954;48.694;8.940;2023-09-12T12:32:55;46.60;53.40
17671;DHT22;8954;48.694;8.940;2023-09-12T12:35:23;45.30;53.10
17671;DHT22;8954;48.694;8.940;2023-09-12T12:37:50;42.80;56.60
17671;DHT22;8954;48.694;8.940;2023-09-12T12:40:16;42.40;59.00
17671;DHT22;8954;48.694;8.940;2023-09-12T12:42:45;42.50;58.60
17671;DHT22;8954;48.694;8.940;2023-09-12T12:45:19;43.00;58.40
17671;DHT22;8954;48.694;8.940;2023-09-12T12:47:45;45.10;57.80
17671;DHT22;8954;48.694;8.940;2023-09-12T12:57:38;36.70;77.10
17671;DHT22;8954;48.694;8.940;2023-09-12T13:00:09;36.90;75.80
17671;DHT22;8954;48.694;8.940;2023-09-12T13:02:39;37.80;74.80
17671;DHT22;8954;48.694;8.940;2023-09-12T13:05:19;37.10;76.40
17671;DHT22;8954;48.694;8.940;2023-09-12T13:07:45;37.80;75.70
17671;DHT22;8954;48.694;8.940;2023-09-12T13:10:10;39.00;73.60
17671;DHT22;8954;48.694;8.940;2023-09-12T13:12:36;38.40;75.70
17671;DHT22;8954;48.694;8.940;2023-09-12T13:15:04;39.30;73.40
17671;DHT22;8954;48.694;8.940;2023-09-12T13:17:30;40.10;72.50
17671;DHT22;8954;48.694;8.940;2023-09-12T13:19:55;41.10;73.00
17671;DHT22;8954;48.694;8.940;2023-09-12T13:22:21;41.80;71.40
17671;DHT22;8954;48.694;8.940;2023-09-12T13:24:47;41.90;73.60
17671;DHT22;8954;48.694;8.940;2023-09-12T13:41:50;43.00;72.30
17671;DHT22;8954;48.694;8.940;2023-09-12T13:44:17;43.30;70.80
17671;DHT22;8954;48.694;8.940;2023-09-12T13:46:42;42.90;71.00
17671;DHT22;8954;48.694;8.940;2023-09-12T13:49:11;43.40;69.80
17671;DHT22;8954;48.694;8.940;2023-09-12T13:51:36;43.30;69.10
17671;DHT22;8954;48.694;8.940;2023-09-12T13:54:03;43.40;68.90
17671;DHT22;8954;48.694;8.940;2023-09-12T13:56:29;43.50;68.20
17671;DHT22;8954;48.694;8.940;2023-09-12T13:58:54;43.10;69.20
17671;DHT22;8954;48.694;8.940;2023-09-12T14:01:21;43.20;68.80
17671;DHT22;8954;48.694;8.940;2023-09-12T14:03:48;43.50;68.20
17671;DHT22;8954;48.694;8.940;2023-09-12T14:06:14;42.40;70.00
17671;DHT22;8954;48.694;8.940;2023-09-12T14:08:39;42.50;69.10
17671;DHT22;8954;48.694;8.940;2023-09-12T14:11:05;43.50;64.90
17671;DHT22;8954;48.694;8.940;2023-09-12T14:13:30;43.10;67.10
17671;DHT22;8954;48.694;8.940;2023-09-12T14:15:56;42.10;69.60
17671;DHT22;8954;48.694;8.940;2023-09-12T14:18:22;41.70;70.80
17671;DHT22;8954;48.694;8.940;2023-09-12T14:20:47;41.40;70.20
17671;DHT22;8954;48.694;8.940;2023-09-12T14:25:39;39.40;78.20
